Česky Dansk Deutsch English Español Suomi Français Magyar Italiano Nederlands norsk Polski Português svenska Türkçe

 

Het Weer

Dagali (Noorwegen)

14:50, 27 april 2003 (GMT)

NWNNE
WE
SWSSE
Home            
Dagali Fagernes Leirin Notodden Sogndal / Haukasen Voss-Bo Oslo / Fornebu Oslo / Gardermoen Skien-Geiteryggen Oseberg Torp Rygge Bergen / Flesland Forde / Bringeland Stord / Soerstokken Sandane / Anda Haugesund / Karmoy Floro Stavanger / Sola Orsta-Volda / Hovden Kristiansand / Kjevik Molde / Aro Alesund / Vigra Lista Flyplass

Om een weerknop op uw website of weblog te plaatsen, copieer onderstaande code en plak die in uw pagina. In het eerste vakje staat HTML-code, in het tweede vakje UBB-code.


Add to Google

Details

Wind speed:1 bf, 2 kn, 1.0 m/s, 2.3 miles/h, 3.7 km/h
Wind direction:NNE, 030°
Visibility: 2500 m, 2.5 km, 8202 ft, 1.6 miles
Clouds:Durchbrochene Bewölkung at 1200 ft, 366 m
Het Weer:moderate snow rain
Dew-point:-1°C, 30°F
Atmospheric pressure:995 hPa, 746.3 mmHg, 29.38 inHg, 0.982 atm
METAR:ENDI 271450Z 03002KT 2500 SNRA BKN012 00/M01 Q0995

Snelkoppelingen

Actuele weersinformatie van de hele wereld. Voeg locaties toe met het plus (+) symbool. Deze snelkoppelingen kunnen worden toegevoegd aan Google.

Lid van de Technetium groep

website free tracking
StatCounter NetStat W3C Validator

15-08-2022 08:01:37
astro.technetium.be money.technetium.be phote.technetium.be tafeltennistafel.technetium.be www.ligfiets.net